createdAt,value
2023-03-15T00:01:34.833Z,5.09
2023-03-15T00:04:01.425Z,5.14
2023-03-15T00:06:27.938Z,5.19
2023-03-15T00:08:54.409Z,5.22
2023-03-15T00:11:20.818Z,5.26
2023-03-15T00:13:47.541Z,5.28
2023-03-15T00:16:17.537Z,5.30
2023-03-15T00:18:47.028Z,5.30
2023-03-15T00:21:14.024Z,5.29
2023-03-15T00:23:40.571Z,5.29
2023-03-15T00:26:07.057Z,5.27
2023-03-15T00:28:33.504Z,5.24
2023-03-15T00:31:26.315Z,5.14
2023-03-15T00:33:55.923Z,5.13
2023-03-15T00:36:23.644Z,5.02
2023-03-15T00:38:52.183Z,4.94
2023-03-15T00:41:20.246Z,4.83
2023-03-15T00:43:47.741Z,4.74
2023-03-15T00:46:16.158Z,4.64
2023-03-15T00:48:42.912Z,4.51
2023-03-15T00:51:11.012Z,4.41
2023-03-15T00:53:39.196Z,4.30
2023-03-15T00:56:15.612Z,4.19
2023-03-15T00:58:42.724Z,4.13
2023-03-15T01:01:15.560Z,4.07
2023-03-15T01:03:42.180Z,4.03
2023-03-15T01:06:14.624Z,4.01
2023-03-15T01:08:41.394Z,3.99
2023-03-15T01:11:13.695Z,3.96
2023-03-15T01:13:40.525Z,3.98
2023-03-15T01:16:08.976Z,3.97
2023-03-15T01:21:07.224Z,4.01
2023-03-15T01:23:33.759Z,4.04
2023-03-15T01:26:01.449Z,4.08
2023-03-15T01:28:28.470Z,4.11
2023-03-15T01:30:55.150Z,4.13
2023-03-15T01:33:21.725Z,4.16
2023-03-15T01:35:48.735Z,4.18
2023-03-15T01:38:15.316Z,4.20
2023-03-15T01:40:46.349Z,4.21
2023-03-15T01:43:18.181Z,4.25
2023-03-15T01:46:02.865Z,4.26
2023-03-15T01:48:44.848Z,4.30
2023-03-15T01:51:21.745Z,4.36
2023-03-15T01:53:57.681Z,4.39
2023-03-15T01:56:24.566Z,4.45
2023-03-15T01:58:53.846Z,4.47
2023-03-15T02:01:21.461Z,4.51
2023-03-15T02:03:53.497Z,4.54
2023-03-15T02:06:21.451Z,4.56
2023-03-15T02:08:54.855Z,4.55
2023-03-15T02:11:24.240Z,4.59
2023-03-15T02:13:52.700Z,4.59
2023-03-15T02:16:20.754Z,4.61
2023-03-15T02:18:47.844Z,4.61
2023-03-15T02:21:38.368Z,4.58
2023-03-15T02:24:22.934Z,4.60
2023-03-15T02:26:54.434Z,4.63
2023-03-15T02:29:24.060Z,4.64
2023-03-15T02:31:51.425Z,4.65
2023-03-15T02:34:18.510Z,4.64
2023-03-15T02:36:45.120Z,4.64
2023-03-15T02:39:17.747Z,4.63
2023-03-15T02:41:48.866Z,4.64
2023-03-15T02:44:21.451Z,4.65
2023-03-15T02:46:51.210Z,4.66
2023-03-15T02:49:21.816Z,4.66
2023-03-15T02:51:48.173Z,4.68
2023-03-15T02:54:14.661Z,4.68
2023-03-15T02:56:41.103Z,4.69
2023-03-15T02:59:07.658Z,4.71
2023-03-15T03:01:37.264Z,4.72
2023-03-15T03:04:04.027Z,4.74
2023-03-15T03:06:30.872Z,4.76
2023-03-15T03:08:57.423Z,4.77
2023-03-15T03:11:23.948Z,4.78
2023-03-15T03:13:51.186Z,4.78
2023-03-15T03:16:17.707Z,4.79
2023-03-15T03:18:44.183Z,4.80
2023-03-15T03:21:10.785Z,4.80
2023-03-15T03:23:37.414Z,4.79
2023-03-15T03:26:04.458Z,4.79
2023-03-15T03:28:32.255Z,4.80
2023-03-15T03:30:59.257Z,4.80
2023-03-15T03:33:25.815Z,4.81
2023-03-15T03:35:53.998Z,4.81
2023-03-15T03:38:20.559Z,4.83
2023-03-15T03:40:47.057Z,4.83
2023-03-15T03:43:13.540Z,4.86
2023-03-15T03:45:39.970Z,4.88
2023-03-15T03:48:06.624Z,4.88
2023-03-15T03:50:33.279Z,4.90
2023-03-15T03:52:59.809Z,4.91
2023-03-15T03:55:26.366Z,4.93
2023-03-15T03:57:55.748Z,4.93
2023-03-15T04:00:22.353Z,4.95
2023-03-15T04:02:49.009Z,4.97
2023-03-15T04:05:15.616Z,4.98
2023-03-15T04:07:42.067Z,4.98
2023-03-15T04:10:14.727Z,4.97
2023-03-15T04:12:44.375Z,4.95
2023-03-15T04:15:12.049Z,4.94
2023-03-15T04:17:39.399Z,4.92
2023-03-15T04:20:08.214Z,4.91
2023-03-15T04:22:34.933Z,4.89
2023-03-15T04:25:01.973Z,4.86
2023-03-15T04:27:29.450Z,4.82
2023-03-15T04:29:56.075Z,4.81
2023-03-15T04:32:23.836Z,4.80
2023-03-15T04:34:55.936Z,4.79
2023-03-15T04:37:22.388Z,4.80
2023-03-15T04:39:48.797Z,4.80
2023-03-15T04:42:15.243Z,4.79
2023-03-15T04:44:41.828Z,4.80
2023-03-15T04:47:08.427Z,4.80
2023-03-15T04:49:34.941Z,4.80
2023-03-15T04:52:01.589Z,4.80
2023-03-15T04:54:28.095Z,4.79
2023-03-15T04:56:54.537Z,4.79
2023-03-15T04:59:21.313Z,4.78
2023-03-15T05:01:48.056Z,4.78
2023-03-15T05:04:14.579Z,4.77
2023-03-15T05:06:41.048Z,4.78
2023-03-15T05:09:07.699Z,4.79
2023-03-15T05:11:34.329Z,4.79
2023-03-15T05:14:00.892Z,4.80
2023-03-15T05:16:27.426Z,4.81
2023-03-15T05:18:54.091Z,4.82
2023-03-15T05:21:20.583Z,4.82
2023-03-15T05:23:47.138Z,4.81
2023-03-15T05:26:14.413Z,4.80
2023-03-15T05:28:40.974Z,4.81
2023-03-15T05:31:07.428Z,4.79
2023-03-15T05:33:33.865Z,4.79
2023-03-15T05:36:00.989Z,4.77
2023-03-15T05:38:27.656Z,4.78
2023-03-15T05:40:54.638Z,4.77
2023-03-15T05:43:22.040Z,4.74
2023-03-15T05:45:48.825Z,4.72
2023-03-15T05:48:16.761Z,4.71
2023-03-15T05:50:43.361Z,4.68
2023-03-15T05:53:10.544Z,4.67
2023-03-15T05:55:37.430Z,4.64
2023-03-15T05:58:04.553Z,4.63
2023-03-15T06:00:31.535Z,4.61
2023-03-15T06:02:58.172Z,4.60
2023-03-15T06:05:24.758Z,4.59
2023-03-15T06:07:51.255Z,4.58
2023-03-15T06:10:17.861Z,4.57
2023-03-15T06:12:44.897Z,4.58
2023-03-15T06:15:11.971Z,4.59
2023-03-15T06:17:38.530Z,4.59
2023-03-15T06:20:05.480Z,4.62
2023-03-15T06:22:31.967Z,4.63
2023-03-15T06:24:58.398Z,4.64
2023-03-15T06:27:24.988Z,4.65
2023-03-15T06:29:51.540Z,4.65
2023-03-15T06:32:17.983Z,4.67
2023-03-15T06:34:44.395Z,4.67
2023-03-15T06:37:16.298Z,4.67
2023-03-15T06:39:46.839Z,4.68
2023-03-15T06:42:13.568Z,4.67
2023-03-15T06:44:41.433Z,4.64
2023-03-15T06:47:08.798Z,4.65
2023-03-15T06:49:35.563Z,4.64
2023-03-15T06:52:02.604Z,4.65
2023-03-15T06:54:29.100Z,4.64
2023-03-15T06:56:55.986Z,4.63
2023-03-15T06:59:22.954Z,4.64
2023-03-15T07:01:49.517Z,4.62
2023-03-15T07:04:16.191Z,4.60
2023-03-15T07:06:42.576Z,4.59
2023-03-15T07:09:09.183Z,4.56
2023-03-15T07:11:35.595Z,4.56
2023-03-15T07:14:02.034Z,4.54
2023-03-15T07:16:28.570Z,4.54
2023-03-15T07:21:27.091Z,4.52
2023-03-15T07:23:54.117Z,4.51
2023-03-15T07:26:20.827Z,4.50
2023-03-15T07:28:47.261Z,4.51
2023-03-15T07:31:14.217Z,4.52
2023-03-15T07:33:40.998Z,4.51
2023-03-15T07:36:08.844Z,4.53
2023-03-15T07:38:35.993Z,4.55
2023-03-15T07:41:06.521Z,4.56
2023-03-15T07:43:33.783Z,4.61
2023-03-15T07:46:01.476Z,4.65
2023-03-15T07:48:29.478Z,4.71
2023-03-15T07:50:56.849Z,4.75
2023-03-15T07:53:23.338Z,4.79
2023-03-15T07:55:50.165Z,4.83
2023-03-15T07:58:19.770Z,4.87
2023-03-15T08:00:46.918Z,4.91
2023-03-15T08:03:13.451Z,4.94
2023-03-15T08:05:40.150Z,4.98
2023-03-15T08:08:07.361Z,5.01
2023-03-15T08:10:33.907Z,5.04
2023-03-15T08:13:00.469Z,5.09
2023-03-15T08:15:27.021Z,5.13
2023-03-15T08:17:53.657Z,5.16
2023-03-15T08:20:20.281Z,5.21
2023-03-15T08:22:51.533Z,5.23
2023-03-15T08:25:21.412Z,5.28
2023-03-15T08:27:48.657Z,5.32
2023-03-15T08:30:16.387Z,5.38
2023-03-15T08:32:45.283Z,5.42
2023-03-15T08:35:15.718Z,5.46
2023-03-15T08:37:46.876Z,5.50
2023-03-15T08:40:19.081Z,5.53
2023-03-15T08:42:45.561Z,5.59
2023-03-15T08:45:12.202Z,5.65
2023-03-15T08:47:38.592Z,5.71
2023-03-15T08:50:08.637Z,5.76
2023-03-15T08:52:35.287Z,5.82
2023-03-15T08:55:01.702Z,5.87
2023-03-15T08:57:29.232Z,5.92
2023-03-15T08:59:56.222Z,5.97
2023-03-15T09:02:23.484Z,6.03
2023-03-15T09:04:51.789Z,6.07
2023-03-15T09:07:19.543Z,6.12
2023-03-15T09:09:48.199Z,6.17
2023-03-15T09:12:16.678Z,6.23
2023-03-15T09:14:44.014Z,6.29
2023-03-15T09:17:10.875Z,6.36
2023-03-15T09:19:37.415Z,6.43
2023-03-15T09:22:16.332Z,6.50
2023-03-15T09:24:51.476Z,6.59
2023-03-15T09:27:18.471Z,6.67
2023-03-15T09:29:44.965Z,6.73
2023-03-15T09:32:11.655Z,6.81
2023-03-15T09:34:41.980Z,6.89
2023-03-15T09:37:09.344Z,6.96
2023-03-15T09:39:35.866Z,7.06
2023-03-15T09:42:06.435Z,7.15
2023-03-15T09:44:43.745Z,7.24
2023-03-15T09:47:31.715Z,7.32
2023-03-15T09:50:14.900Z,7.43
2023-03-15T09:52:46.523Z,7.52
2023-03-15T09:55:28.856Z,7.61
2023-03-15T09:58:02.789Z,7.71
2023-03-15T10:00:45.768Z,7.78
2023-03-15T10:03:26.942Z,7.89
2023-03-15T10:06:01.300Z,8.00
2023-03-15T10:08:27.923Z,8.11
2023-03-15T10:11:08.848Z,8.12
2023-03-15T10:14:06.229Z,8.19
2023-03-15T10:16:46.071Z,8.26
2023-03-15T10:19:38.869Z,8.31
2023-03-15T10:22:14.647Z,8.34
2023-03-15T10:25:08.424Z,8.42
2023-03-15T10:27:41.678Z,8.46
2023-03-15T10:30:21.508Z,8.47
2023-03-15T10:32:55.834Z,8.53
2023-03-15T10:35:22.344Z,8.56
2023-03-15T10:37:49.107Z,8.56
2023-03-15T10:40:36.373Z,8.55
2023-03-15T10:43:18.018Z,8.53
2023-03-15T10:46:07.547Z,8.61
2023-03-15T10:48:39.511Z,8.73
2023-03-15T10:51:27.413Z,8.86
2023-03-15T10:54:01.337Z,9.04
2023-03-15T10:56:31.852Z,9.23
2023-03-15T10:59:12.015Z,9.40
2023-03-15T11:01:39.677Z,9.61
2023-03-15T11:04:23.091Z,9.80
2023-03-15T11:06:50.816Z,10.00
2023-03-15T11:09:23.715Z,10.22
2023-03-15T11:12:01.267Z,10.39
2023-03-15T11:14:59.124Z,10.55
2023-03-15T11:17:32.471Z,10.75
2023-03-15T11:20:18.595Z,10.92
2023-03-15T11:22:45.433Z,11.05
2023-03-15T11:25:17.196Z,11.13
2023-03-15T11:27:46.842Z,11.19
2023-03-15T11:30:16.080Z,11.30
2023-03-15T11:32:44.976Z,11.60
2023-03-15T11:35:15.443Z,12.08
2023-03-15T11:37:50.707Z,12.69
2023-03-15T11:40:29.876Z,13.46
2023-03-15T11:42:56.502Z,14.24
2023-03-15T11:45:33.687Z,14.83
2023-03-15T11:48:09.196Z,15.33
2023-03-15T11:50:35.768Z,15.85
2023-03-15T11:53:06.918Z,16.33
2023-03-15T11:55:33.905Z,16.76
2023-03-15T11:58:34.312Z,17.06
2023-03-15T12:01:03.662Z,17.32
2023-03-15T12:03:36.146Z,17.42
2023-03-15T12:06:05.686Z,17.39
2023-03-15T12:08:43.388Z,17.34
2023-03-15T12:11:34.087Z,17.49
2023-03-15T12:14:00.669Z,17.82
2023-03-15T12:16:47.759Z,18.05
2023-03-15T12:19:18.229Z,18.32
2023-03-15T12:21:50.573Z,18.55
2023-03-15T12:24:22.846Z,18.89
2023-03-15T12:27:17.071Z,19.23
2023-03-15T12:29:48.377Z,19.62
2023-03-15T12:32:17.665Z,20.01
2023-03-15T12:34:46.952Z,20.47
2023-03-15T12:37:17.273Z,20.92
2023-03-15T12:39:59.310Z,21.36
2023-03-15T12:42:31.881Z,21.79
2023-03-15T12:45:19.295Z,22.08
2023-03-15T12:47:51.880Z,22.39
2023-03-15T12:50:47.105Z,22.57
2023-03-15T12:53:23.218Z,22.68
2023-03-15T12:55:54.161Z,22.52
2023-03-15T12:58:32.133Z,22.05
2023-03-15T13:01:05.382Z,21.50
2023-03-15T13:03:35.420Z,20.89
2023-03-15T13:06:24.572Z,20.12
2023-03-15T13:09:11.779Z,19.54
2023-03-15T13:11:53.845Z,18.70
2023-03-15T13:14:47.991Z,17.97
2023-03-15T13:17:23.709Z,17.29
2023-03-15T13:23:22.818Z,16.35
2023-03-15T13:26:06.429Z,16.21
2023-03-15T13:28:38.117Z,16.14
2023-03-15T13:31:19.773Z,16.02
2023-03-15T13:33:57.231Z,16.09
2023-03-15T13:36:46.479Z,16.41
2023-03-15T13:39:24.699Z,17.04
2023-03-15T13:42:03.562Z,17.86
2023-03-15T13:44:31.899Z,18.70
2023-03-15T13:46:59.609Z,19.53
2023-03-15T13:49:31.822Z,20.28
2023-03-15T13:51:58.845Z,20.99
2023-03-15T13:54:27.633Z,21.58
2023-03-15T13:57:06.369Z,22.11
2023-03-15T13:59:40.480Z,22.58
2023-03-15T14:02:07.707Z,22.99
2023-03-15T14:04:38.214Z,23.34
2023-03-15T14:07:34.049Z,23.63
2023-03-15T14:10:08.735Z,24.01
2023-03-15T14:12:35.219Z,24.38
2023-03-15T14:15:01.810Z,24.65
2023-03-15T14:17:30.974Z,24.90
2023-03-15T14:20:08.950Z,25.06
2023-03-15T14:22:36.422Z,25.11
2023-03-15T14:25:04.250Z,24.91
2023-03-15T14:27:33.290Z,24.54
2023-03-15T14:30:02.379Z,24.13
2023-03-15T14:32:32.732Z,23.82
2023-03-15T14:35:21.625Z,23.69
2023-03-15T14:37:48.422Z,23.88
2023-03-15T14:40:22.908Z,24.08
2023-03-15T14:42:50.525Z,24.32
2023-03-15T14:45:18.485Z,24.54
2023-03-15T14:47:56.693Z,24.73
2023-03-15T14:50:26.602Z,24.99
2023-03-15T14:52:54.090Z,25.20
2023-03-15T14:55:23.845Z,25.40
2023-03-15T14:57:51.331Z,25.59
2023-03-15T15:00:20.534Z,25.77
2023-03-15T15:02:53.427Z,25.93
2023-03-15T15:05:24.827Z,26.08
2023-03-15T15:07:55.177Z,26.22
2023-03-15T15:10:31.735Z,26.29
2023-03-15T15:13:05.859Z,26.38
2023-03-15T15:15:43.807Z,26.39
2023-03-15T15:18:17.882Z,26.45
2023-03-15T15:20:45.138Z,26.47
2023-03-15T15:23:17.666Z,26.48
2023-03-15T15:25:46.537Z,26.52
2023-03-15T15:28:15.827Z,26.52
2023-03-15T15:30:47.924Z,26.51
2023-03-15T15:33:15.122Z,26.42
2023-03-15T15:35:41.629Z,26.20
2023-03-15T15:38:12.174Z,25.81
2023-03-15T15:40:39.806Z,25.33
2023-03-15T15:43:06.537Z,24.75
2023-03-15T15:45:35.713Z,24.05
2023-03-15T15:48:06.181Z,23.27
2023-03-15T15:50:34.755Z,22.46
2023-03-15T15:53:07.615Z,21.55
2023-03-15T15:55:36.085Z,20.78
2023-03-15T15:58:04.368Z,19.98
2023-03-15T16:00:31.629Z,19.25
2023-03-15T16:02:58.624Z,18.54
2023-03-15T16:05:27.427Z,17.90
2023-03-15T16:07:56.453Z,17.32
2023-03-15T16:10:26.196Z,16.81
2023-03-15T16:12:54.924Z,16.36
2023-03-15T16:15:21.582Z,15.95
2023-03-15T16:17:48.188Z,15.57
2023-03-15T16:20:16.570Z,15.20
2023-03-15T16:22:50.377Z,14.86
2023-03-15T16:25:25.325Z,14.54
2023-03-15T16:27:53.298Z,14.29
2023-03-15T16:30:28.398Z,14.00
2023-03-15T16:32:57.575Z,13.83
2023-03-15T16:35:33.818Z,13.60
2023-03-15T16:38:01.739Z,13.50
2023-03-15T16:40:30.806Z,13.37
2023-03-15T16:42:57.384Z,13.27
2023-03-15T16:45:24.826Z,13.14
2023-03-15T16:47:51.410Z,13.03
2023-03-15T16:50:18.323Z,12.89
2023-03-15T16:52:47.535Z,12.72
2023-03-15T16:55:15.837Z,12.53
2023-03-15T16:57:42.864Z,12.32
2023-03-15T17:00:16.927Z,12.10
2023-03-15T17:02:46.678Z,11.93
2023-03-15T17:05:18.861Z,11.79
2023-03-15T17:07:47.309Z,11.66
2023-03-15T17:10:25.506Z,11.55
2023-03-15T17:12:53.348Z,11.53
2023-03-15T17:15:24.008Z,11.47
2023-03-15T17:17:51.945Z,11.44
2023-03-15T17:20:21.490Z,11.41
2023-03-15T17:22:52.810Z,11.34
2023-03-15T17:25:19.420Z,11.28
2023-03-15T17:27:47.860Z,11.24
2023-03-15T17:30:51.582Z,11.14
2023-03-15T17:33:25.815Z,11.12
2023-03-15T17:35:57.908Z,11.04
2023-03-15T17:38:32.151Z,10.97
2023-03-15T17:40:59.000Z,10.93
2023-03-15T17:43:26.604Z,10.88
2023-03-15T17:45:52.925Z,10.82
2023-03-15T17:48:19.379Z,10.77
2023-03-15T17:50:45.802Z,10.73
2023-03-15T17:53:17.817Z,10.69
2023-03-15T17:55:46.202Z,10.64
2023-03-15T17:58:19.054Z,10.57
2023-03-15T18:00:46.511Z,10.51
2023-03-15T18:03:13.951Z,10.43
2023-03-15T18:05:40.775Z,10.36
2023-03-15T18:08:11.209Z,10.27
2023-03-15T18:10:41.442Z,10.22
2023-03-15T18:13:11.992Z,10.12
2023-03-15T18:15:38.402Z,10.03
2023-03-15T18:18:06.505Z,9.94
2023-03-15T18:20:33.171Z,9.85
2023-03-15T18:22:59.488Z,9.73
2023-03-15T18:25:28.252Z,9.62
2023-03-15T18:27:55.055Z,9.51
2023-03-15T18:30:24.317Z,9.39
2023-03-15T18:32:52.427Z,9.31
2023-03-15T18:35:31.379Z,9.19
2023-03-15T18:37:58.381Z,9.17
2023-03-15T18:40:29.205Z,9.12
2023-03-15T18:42:57.093Z,9.09
2023-03-15T18:45:29.634Z,9.06
2023-03-15T18:47:56.732Z,9.02
2023-03-15T18:50:23.142Z,8.95
2023-03-15T18:52:49.498Z,8.87
2023-03-15T18:55:18.342Z,8.78
2023-03-15T18:57:46.020Z,8.71
2023-03-15T19:00:15.944Z,8.64
2023-03-15T19:02:44.775Z,8.57
2023-03-15T19:05:13.651Z,8.53
2023-03-15T19:07:40.453Z,8.50
2023-03-15T19:10:09.824Z,8.43
2023-03-15T19:12:36.744Z,8.42
2023-03-15T19:15:04.421Z,8.41
2023-03-15T19:17:30.864Z,8.39
2023-03-15T19:19:57.261Z,8.38
2023-03-15T19:22:23.968Z,8.36
2023-03-15T19:24:50.489Z,8.33
2023-03-15T19:27:17.861Z,8.31
2023-03-15T19:29:44.397Z,8.29
2023-03-15T19:32:10.976Z,8.25
2023-03-15T19:34:37.551Z,8.21
2023-03-15T19:37:04.394Z,8.16
2023-03-15T19:39:30.866Z,8.12
2023-03-15T19:41:57.415Z,8.05
2023-03-15T19:44:23.932Z,8.01
2023-03-15T19:46:50.990Z,7.95
2023-03-15T19:49:17.457Z,7.88
2023-03-15T19:51:43.975Z,7.84
2023-03-15T19:54:10.616Z,7.77
2023-03-15T19:56:37.141Z,7.72
2023-03-15T19:59:04.453Z,7.68
2023-03-15T20:01:32.378Z,7.63
2023-03-15T20:03:59.498Z,7.61
2023-03-15T20:06:26.273Z,7.57
2023-03-15T20:08:52.895Z,7.52
2023-03-15T20:11:25.157Z,7.49
2023-03-15T20:13:54.758Z,7.45
2023-03-15T20:16:22.131Z,7.41
2023-03-15T20:18:51.286Z,7.39
2023-03-15T20:21:18.656Z,7.37
2023-03-15T20:23:45.508Z,7.35
2023-03-15T20:26:16.764Z,7.31
2023-03-15T20:28:44.318Z,7.30
2023-03-15T20:31:13.155Z,7.27
2023-03-15T20:33:40.127Z,7.27
2023-03-15T20:36:07.183Z,7.26
2023-03-15T20:38:34.612Z,7.25
2023-03-15T20:41:01.233Z,7.25
2023-03-15T20:43:27.695Z,7.24
2023-03-15T20:45:55.981Z,7.22
2023-03-15T20:48:24.697Z,7.22
2023-03-15T20:50:52.312Z,7.20
2023-03-15T20:53:19.510Z,7.16
2023-03-15T20:55:46.195Z,7.12
2023-03-15T20:58:12.872Z,7.09
2023-03-15T21:00:44.384Z,7.07
2023-03-15T21:03:13.109Z,7.04
2023-03-15T21:05:44.664Z,6.99
2023-03-15T21:08:12.195Z,6.96
2023-03-15T21:10:38.923Z,6.91
2023-03-15T21:13:11.036Z,6.87
2023-03-15T21:15:46.593Z,6.77
2023-03-15T21:18:17.943Z,6.73
2023-03-15T21:20:44.576Z,6.67
2023-03-15T21:23:11.555Z,6.59
2023-03-15T21:25:38.442Z,6.53
2023-03-15T21:28:05.026Z,6.46
2023-03-15T21:30:33.097Z,6.39
2023-03-15T21:33:00.062Z,6.34
2023-03-15T21:35:26.699Z,6.29
2023-03-15T21:37:53.358Z,6.24
2023-03-15T21:40:19.927Z,6.21
2023-03-15T21:42:47.869Z,6.17
2023-03-15T21:45:14.661Z,6.13
2023-03-15T21:47:41.524Z,6.10
2023-03-15T21:50:11.136Z,6.06
2023-03-15T21:52:37.626Z,6.04
2023-03-15T21:55:04.896Z,5.99
2023-03-15T21:57:33.841Z,5.96
2023-03-15T22:00:01.202Z,5.92
2023-03-15T22:02:27.758Z,5.88
2023-03-15T22:04:54.286Z,5.84
2023-03-15T22:07:20.835Z,5.82
2023-03-15T22:09:47.354Z,5.81
2023-03-15T22:12:15.482Z,5.80
2023-03-15T22:14:42.206Z,5.81
2023-03-15T22:17:08.930Z,5.82
2023-03-15T22:19:35.611Z,5.85
2023-03-15T22:22:02.190Z,5.87
2023-03-15T22:24:28.947Z,5.86
2023-03-15T22:26:56.170Z,5.87
2023-03-15T22:29:22.845Z,5.87
2023-03-15T22:31:49.342Z,5.89
2023-03-15T22:34:15.943Z,5.89
2023-03-15T22:36:42.701Z,5.90
2023-03-15T22:39:10.098Z,5.91
2023-03-15T22:41:36.934Z,5.92
2023-03-15T22:44:03.722Z,5.91
2023-03-15T22:46:34.886Z,5.91
2023-03-15T22:49:02.294Z,5.89
2023-03-15T22:51:28.958Z,5.88
2023-03-15T22:53:55.473Z,5.86
2023-03-15T22:56:22.054Z,5.84
2023-03-15T22:58:48.785Z,5.81
2023-03-15T23:01:15.377Z,5.79
2023-03-15T23:03:41.946Z,5.75
2023-03-15T23:06:08.420Z,5.70
2023-03-15T23:08:34.979Z,5.67
2023-03-15T23:11:01.503Z,5.63
2023-03-15T23:13:27.969Z,5.59
2023-03-15T23:15:54.581Z,5.56
2023-03-15T23:18:22.068Z,5.54
2023-03-15T23:20:48.592Z,5.51
2023-03-15T23:23:15.414Z,5.50
2023-03-15T23:25:43.074Z,5.45
2023-03-15T23:28:09.725Z,5.45
2023-03-15T23:30:36.532Z,5.41
2023-03-15T23:33:03.841Z,5.40
2023-03-15T23:35:31.779Z,5.40
2023-03-15T23:37:58.563Z,5.39
2023-03-15T23:40:26.161Z,5.40
2023-03-15T23:42:58.877Z,5.40
2023-03-15T23:45:27.771Z,5.41
2023-03-15T23:47:54.396Z,5.41
2023-03-15T23:50:25.802Z,5.43
2023-03-15T23:52:54.684Z,5.42
2023-03-15T23:55:22.262Z,5.45
2023-03-15T23:57:49.335Z,5.45
